sensor_id;sensor_type;location;lat;lon;timestamp;temperature;humidity
33707;DHT22;20583;50.960;5.332;2022-07-29T00:01:49;24.60;60.50
33707;DHT22;20583;50.960;5.332;2022-07-29T00:04:14;24.60;60.60
33707;DHT22;20583;50.960;5.332;2022-07-29T00:06:40;24.60;60.80
33707;DHT22;20583;50.960;5.332;2022-07-29T00:09:07;24.60;60.80
33707;DHT22;20583;50.960;5.332;2022-07-29T00:11:33;24.60;61.00
33707;DHT22;20583;50.960;5.332;2022-07-29T00:13:58;24.60;61.10
33707;DHT22;20583;50.960;5.332;2022-07-29T00:16:24;24.60;61.10
33707;DHT22;20583;50.960;5.332;2022-07-29T00:18:49;24.60;61.00
33707;DHT22;20583;50.960;5.332;2022-07-29T00:21:15;24.60;61.20
33707;DHT22;20583;50.960;5.332;2022-07-29T00:23:41;24.60;61.40
33707;DHT22;20583;50.960;5.332;2022-07-29T00:26:07;24.60;61.40
33707;DHT22;20583;50.960;5.332;2022-07-29T00:28:32;24.60;61.40
33707;DHT22;20583;50.960;5.332;2022-07-29T00:30:58;24.60;61.50
33707;DHT22;20583;50.960;5.332;2022-07-29T00:33:24;24.60;61.50
33707;DHT22;20583;50.960;5.332;2022-07-29T00:35:50;24.60;61.70
33707;DHT22;20583;50.960;5.332;2022-07-29T00:38:19;24.60;61.80
33707;DHT22;20583;50.960;5.332;2022-07-29T00:40:46;24.60;62.00
33707;DHT22;20583;50.960;5.332;2022-07-29T00:43:13;24.60;62.00
33707;DHT22;20583;50.960;5.332;2022-07-29T00:45:40;24.60;61.90
33707;DHT22;20583;50.960;5.332;2022-07-29T00:48:05;24.60;61.90
33707;DHT22;20583;50.960;5.332;2022-07-29T00:50:32;24.60;62.10
33707;DHT22;20583;50.960;5.332;2022-07-29T00:52:58;24.60;63.00
33707;DHT22;20583;50.960;5.332;2022-07-29T00:55:24;24.60;62.30
33707;DHT22;20583;50.960;5.332;2022-07-29T00:57:50;24.60;62.30
33707;DHT22;20583;50.960;5.332;2022-07-29T01:00:21;24.60;62.20
33707;DHT22;20583;50.960;5.332;2022-07-29T01:02:48;24.60;62.20
33707;DHT22;20583;50.960;5.332;2022-07-29T01:05:15;24.60;62.10
33707;DHT22;20583;50.960;5.332;2022-07-29T01:07:41;24.60;62.10
33707;DHT22;20583;50.960;5.332;2022-07-29T01:10:09;24.60;62.20
33707;DHT22;20583;50.960;5.332;2022-07-29T01:12:37;24.60;62.30
33707;DHT22;20583;50.960;5.332;2022-07-29T01:15:05;24.60;62.20
33707;DHT22;20583;50.960;5.332;2022-07-29T01:30:24;24.60;61.70
33707;DHT22;20583;50.960;5.332;2022-07-29T01:32:56;24.60;61.60
33707;DHT22;20583;50.960;5.332;2022-07-29T01:35:30;24.60;61.70
33707;DHT22;20583;50.960;5.332;2022-07-29T01:38:09;24.60;61.70
33707;DHT22;20583;50.960;5.332;2022-07-29T01:43:11;24.60;62.40
33707;DHT22;20583;50.960;5.332;2022-07-29T01:45:44;24.50;61.60
33707;DHT22;20583;50.960;5.332;2022-07-29T01:48:24;24.60;61.50
33707;DHT22;20583;50.960;5.332;2022-07-29T01:50:58;24.60;61.50
33707;DHT22;20583;50.960;5.332;2022-07-29T01:53:42;24.60;61.30
33707;DHT22;20583;50.960;5.332;2022-07-29T01:56:10;24.60;61.20
33707;DHT22;20583;50.960;5.332;2022-07-29T01:58:39;24.60;61.20
33707;DHT22;20583;50.960;5.332;2022-07-29T02:01:08;24.60;61.20
33707;DHT22;20583;50.960;5.332;2022-07-29T02:03:36;24.60;61.20
33707;DHT22;20583;50.960;5.332;2022-07-29T02:06:04;24.60;61.20
33707;DHT22;20583;50.960;5.332;2022-07-29T02:08:32;24.60;61.20
33707;DHT22;20583;50.960;5.332;2022-07-29T02:11:00;24.50;61.30
33707;DHT22;20583;50.960;5.332;2022-07-29T02:13:27;24.50;61.30
33707;DHT22;20583;50.960;5.332;2022-07-29T02:15:55;24.60;61.50
33707;DHT22;20583;50.960;5.332;2022-07-29T02:18:23;24.50;61.50
33707;DHT22;20583;50.960;5.332;2022-07-29T02:20:53;24.50;62.40
33707;DHT22;20583;50.960;5.332;2022-07-29T02:23:22;24.50;61.70
33707;DHT22;20583;50.960;5.332;2022-07-29T02:25:53;24.50;61.70
33707;DHT22;20583;50.960;5.332;2022-07-29T02:28:22;24.50;61.60
33707;DHT22;20583;50.960;5.332;2022-07-29T02:30:51;24.50;61.60
33707;DHT22;20583;50.960;5.332;2022-07-29T02:33:18;24.50;61.60
33707;DHT22;20583;50.960;5.332;2022-07-29T02:35:46;24.50;61.60
33707;DHT22;20583;50.960;5.332;2022-07-29T02:38:15;24.50;61.60
33707;DHT22;20583;50.960;5.332;2022-07-29T02:41:03;24.50;61.70
33707;DHT22;20583;50.960;5.332;2022-07-29T02:43:30;24.50;61.70
33707;DHT22;20583;50.960;5.332;2022-07-29T02:45:59;24.50;61.80
33707;DHT22;20583;50.960;5.332;2022-07-29T02:48:37;24.50;61.90
33707;DHT22;20583;50.960;5.332;2022-07-29T02:51:11;24.50;61.80
33707;DHT22;20583;50.960;5.332;2022-07-29T02:53:38;24.50;61.80
33707;DHT22;20583;50.960;5.332;2022-07-29T02:56:13;24.50;61.80
33707;DHT22;20583;50.960;5.332;2022-07-29T02:58:45;24.50;61.90
33707;DHT22;20583;50.960;5.332;2022-07-29T03:01:16;24.50;61.90
33707;DHT22;20583;50.960;5.332;2022-07-29T03:03:45;24.50;61.80
33707;DHT22;20583;50.960;5.332;2022-07-29T03:06:13;24.50;61.90
33707;DHT22;20583;50.960;5.332;2022-07-29T03:08:40;24.40;61.90
33707;DHT22;20583;50.960;5.332;2022-07-29T03:11:08;24.50;62.10
33707;DHT22;20583;50.960;5.332;2022-07-29T03:13:35;24.40;62.10
33707;DHT22;20583;50.960;5.332;2022-07-29T03:16:01;24.40;62.10
33707;DHT22;20583;50.960;5.332;2022-07-29T03:18:28;24.40;62.10
33707;DHT22;20583;50.960;5.332;2022-07-29T03:20:54;24.40;62.10
33707;DHT22;20583;50.960;5.332;2022-07-29T03:23:21;24.50;62.20
33707;DHT22;20583;50.960;5.332;2022-07-29T03:25:48;24.40;62.30
33707;DHT22;20583;50.960;5.332;2022-07-29T03:28:14;24.40;62.30
33707;DHT22;20583;50.960;5.332;2022-07-29T03:30:40;24.40;62.40
33707;DHT22;20583;50.960;5.332;2022-07-29T03:33:06;24.50;62.40
33707;DHT22;20583;50.960;5.332;2022-07-29T03:35:31;24.50;62.40
33707;DHT22;20583;50.960;5.332;2022-07-29T03:37:58;24.50;62.40
33707;DHT22;20583;50.960;5.332;2022-07-29T03:40:38;24.50;62.60
33707;DHT22;20583;50.960;5.332;2022-07-29T03:43:06;24.50;62.40
33707;DHT22;20583;50.960;5.332;2022-07-29T03:45:34;24.50;62.40
33707;DHT22;20583;50.960;5.332;2022-07-29T03:48:05;24.50;62.40
33707;DHT22;20583;50.960;5.332;2022-07-29T03:50:33;24.40;62.40
33707;DHT22;20583;50.960;5.332;2022-07-29T03:53:00;24.40;62.50
33707;DHT22;20583;50.960;5.332;2022-07-29T03:55:28;24.40;62.60
33707;DHT22;20583;50.960;5.332;2022-07-29T03:57:56;24.40;62.50
33707;DHT22;20583;50.960;5.332;2022-07-29T04:00:24;24.40;62.50
33707;DHT22;20583;50.960;5.332;2022-07-29T04:02:50;24.40;62.40
33707;DHT22;20583;50.960;5.332;2022-07-29T04:05:17;24.40;62.50
33707;DHT22;20583;50.960;5.332;2022-07-29T04:07:44;24.40;62.60
33707;DHT22;20583;50.960;5.332;2022-07-29T04:10:10;24.40;62.70
33707;DHT22;20583;50.960;5.332;2022-07-29T04:12:36;24.40;62.80
33707;DHT22;20583;50.960;5.332;2022-07-29T04:15:03;24.40;62.70
33707;DHT22;20583;50.960;5.332;2022-07-29T04:17:29;24.40;62.70
33707;DHT22;20583;50.960;5.332;2022-07-29T04:19:55;24.40;62.80
33707;DHT22;20583;50.960;5.332;2022-07-29T04:22:21;24.40;62.90
33707;DHT22;20583;50.960;5.332;2022-07-29T04:24:47;24.40;62.80
33707;DHT22;20583;50.960;5.332;2022-07-29T04:27:12;24.40;62.80
33707;DHT22;20583;50.960;5.332;2022-07-29T04:29:38;24.40;62.80
33707;DHT22;20583;50.960;5.332;2022-07-29T04:32:04;24.40;62.80
33707;DHT22;20583;50.960;5.332;2022-07-29T04:34:30;24.40;62.80
33707;DHT22;20583;50.960;5.332;2022-07-29T04:36:55;24.40;62.90
33707;DHT22;20583;50.960;5.332;2022-07-29T04:39:21;24.40;62.80
33707;DHT22;20583;50.960;5.332;2022-07-29T04:41:47;24.40;62.90
33707;DHT22;20583;50.960;5.332;2022-07-29T04:44:13;24.40;63.00
33707;DHT22;20583;50.960;5.332;2022-07-29T04:46:38;24.40;63.00
33707;DHT22;20583;50.960;5.332;2022-07-29T04:49:04;24.40;63.10
33707;DHT22;20583;50.960;5.332;2022-07-29T04:51:30;24.30;63.00
33707;DHT22;20583;50.960;5.332;2022-07-29T04:53:56;24.40;63.10
33707;DHT22;20583;50.960;5.332;2022-07-29T04:56:22;24.40;63.10
33707;DHT22;20583;50.960;5.332;2022-07-29T04:58:48;24.30;63.20
33707;DHT22;20583;50.960;5.332;2022-07-29T05:01:14;24.30;63.60
33707;DHT22;20583;50.960;5.332;2022-07-29T05:03:40;24.20;64.40
33707;DHT22;20583;50.960;5.332;2022-07-29T05:06:05;24.10;64.50
33707;DHT22;20583;50.960;5.332;2022-07-29T05:08:31;24.10;64.70
33707;DHT22;20583;50.960;5.332;2022-07-29T05:10:57;24.00;65.00
33707;DHT22;20583;50.960;5.332;2022-07-29T05:13:22;24.00;65.50
33707;DHT22;20583;50.960;5.332;2022-07-29T05:15:48;24.00;65.80
33707;DHT22;20583;50.960;5.332;2022-07-29T05:18:13;23.90;66.00
33707;DHT22;20583;50.960;5.332;2022-07-29T05:20:39;23.90;66.30
33707;DHT22;20583;50.960;5.332;2022-07-29T05:23:05;23.90;66.60
33707;DHT22;20583;50.960;5.332;2022-07-29T05:25:31;23.80;66.80
33707;DHT22;20583;50.960;5.332;2022-07-29T05:27:57;23.80;66.90
33707;DHT22;20583;50.960;5.332;2022-07-29T05:30:23;23.80;67.10
33707;DHT22;20583;50.960;5.332;2022-07-29T05:32:49;23.70;67.20
33707;DHT22;20583;50.960;5.332;2022-07-29T05:35:15;23.70;67.50
33707;DHT22;20583;50.960;5.332;2022-07-29T05:37:41;23.70;67.60
33707;DHT22;20583;50.960;5.332;2022-07-29T05:40:08;23.80;67.60
33707;DHT22;20583;50.960;5.332;2022-07-29T05:42:34;23.80;67.90
33707;DHT22;20583;50.960;5.332;2022-07-29T05:45:00;23.80;67.90
33707;DHT22;20583;50.960;5.332;2022-07-29T05:47:26;23.80;68.00
33707;DHT22;20583;50.960;5.332;2022-07-29T05:49:52;23.80;68.10
33707;DHT22;20583;50.960;5.332;2022-07-29T05:52:18;23.70;68.40
33707;DHT22;20583;50.960;5.332;2022-07-29T05:54:44;23.70;69.00
33707;DHT22;20583;50.960;5.332;2022-07-29T05:57:17;23.60;69.80
33707;DHT22;20583;50.960;5.332;2022-07-29T05:59:42;23.50;70.30
33707;DHT22;20583;50.960;5.332;2022-07-29T06:02:08;23.40;70.70
33707;DHT22;20583;50.960;5.332;2022-07-29T06:04:34;23.30;71.30
33707;DHT22;20583;50.960;5.332;2022-07-29T06:07:00;23.40;70.50
33707;DHT22;20583;50.960;5.332;2022-07-29T06:09:25;23.50;70.30
33707;DHT22;20583;50.960;5.332;2022-07-29T06:11:51;23.60;70.10
33707;DHT22;20583;50.960;5.332;2022-07-29T06:14:17;23.50;70.90
33707;DHT22;20583;50.960;5.332;2022-07-29T06:16:43;23.40;71.20
33707;DHT22;20583;50.960;5.332;2022-07-29T06:19:09;23.40;71.40
33707;DHT22;20583;50.960;5.332;2022-07-29T06:21:35;23.50;71.20
33707;DHT22;20583;50.960;5.332;2022-07-29T06:24:00;23.40;71.70
33707;DHT22;20583;50.960;5.332;2022-07-29T06:26:26;23.40;71.50
33707;DHT22;20583;50.960;5.332;2022-07-29T06:28:52;23.40;71.70
33707;DHT22;20583;50.960;5.332;2022-07-29T06:31:17;23.40;71.50
33707;DHT22;20583;50.960;5.332;2022-07-29T06:33:43;23.40;71.70
33707;DHT22;20583;50.960;5.332;2022-07-29T06:36:08;23.50;71.70
33707;DHT22;20583;50.960;5.332;2022-07-29T06:38:34;23.50;71.00
33707;DHT22;20583;50.960;5.332;2022-07-29T06:41:00;23.50;71.10
33707;DHT22;20583;50.960;5.332;2022-07-29T06:43:35;23.50;71.40
33707;DHT22;20583;50.960;5.332;2022-07-29T06:46:07;23.50;71.70
33707;DHT22;20583;50.960;5.332;2022-07-29T06:48:33;23.50;71.70
33707;DHT22;20583;50.960;5.332;2022-07-29T06:50:59;23.50;71.90
33707;DHT22;20583;50.960;5.332;2022-07-29T06:53:26;23.50;72.10
33707;DHT22;20583;50.960;5.332;2022-07-29T06:55:51;23.40;72.30
33707;DHT22;20583;50.960;5.332;2022-07-29T06:58:17;23.30;72.90
33707;DHT22;20583;50.960;5.332;2022-07-29T07:00:49;23.30;72.70
33707;DHT22;20583;50.960;5.332;2022-07-29T07:03:16;23.40;72.50
33707;DHT22;20583;50.960;5.332;2022-07-29T07:05:42;23.40;72.70
33707;DHT22;20583;50.960;5.332;2022-07-29T07:08:08;23.50;71.70
33707;DHT22;20583;50.960;5.332;2022-07-29T07:10:34;23.60;71.30
33707;DHT22;20583;50.960;5.332;2022-07-29T07:13:00;23.70;70.80
33707;DHT22;20583;50.960;5.332;2022-07-29T07:15:27;23.70;70.40
33707;DHT22;20583;50.960;5.332;2022-07-29T07:17:53;23.70;70.80
33707;DHT22;20583;50.960;5.332;2022-07-29T07:20:19;23.60;71.40
33707;DHT22;20583;50.960;5.332;2022-07-29T07:22:45;23.60;71.30
33707;DHT22;20583;50.960;5.332;2022-07-29T07:25:11;23.50;72.10
33707;DHT22;20583;50.960;5.332;2022-07-29T07:27:37;23.50;72.10
33707;DHT22;20583;50.960;5.332;2022-07-29T07:30:04;23.50;72.00
33707;DHT22;20583;50.960;5.332;2022-07-29T07:32:34;23.50;72.10
33707;DHT22;20583;50.960;5.332;2022-07-29T07:35:00;23.60;71.90
33707;DHT22;20583;50.960;5.332;2022-07-29T07:37:26;23.70;71.60
33707;DHT22;20583;50.960;5.332;2022-07-29T07:39:52;23.80;71.30
33707;DHT22;20583;50.960;5.332;2022-07-29T07:42:19;23.80;71.20
33707;DHT22;20583;50.960;5.332;2022-07-29T07:44:44;23.80;71.10
33707;DHT22;20583;50.960;5.332;2022-07-29T07:47:14;23.70;71.50
33707;DHT22;20583;50.960;5.332;2022-07-29T07:49:40;23.80;71.00
33707;DHT22;20583;50.960;5.332;2022-07-29T07:52:06;23.70;71.30
33707;DHT22;20583;50.960;5.332;2022-07-29T07:54:32;23.80;71.20
33707;DHT22;20583;50.960;5.332;2022-07-29T07:56:57;23.80;71.30
33707;DHT22;20583;50.960;5.332;2022-07-29T07:59:23;23.80;71.10
33707;DHT22;20583;50.960;5.332;2022-07-29T08:01:49;23.90;70.90
33707;DHT22;20583;50.960;5.332;2022-07-29T08:04:16;23.80;71.00
33707;DHT22;20583;50.960;5.332;2022-07-29T08:06:41;23.90;70.70
33707;DHT22;20583;50.960;5.332;2022-07-29T08:09:08;23.90;70.30
33707;DHT22;20583;50.960;5.332;2022-07-29T08:11:33;24.00;70.50
33707;DHT22;20583;50.960;5.332;2022-07-29T08:13:59;23.90;70.80
33707;DHT22;20583;50.960;5.332;2022-07-29T08:16:27;23.90;70.70
33707;DHT22;20583;50.960;5.332;2022-07-29T08:18:52;23.90;70.90
33707;DHT22;20583;50.960;5.332;2022-07-29T08:21:23;23.80;72.10
33707;DHT22;20583;50.960;5.332;2022-07-29T08:23:49;23.70;72.50
33707;DHT22;20583;50.960;5.332;2022-07-29T08:26:18;23.80;72.40
33707;DHT22;20583;50.960;5.332;2022-07-29T08:28:45;23.90;72.40
33707;DHT22;20583;50.960;5.332;2022-07-29T08:31:12;23.80;71.80
33707;DHT22;20583;50.960;5.332;2022-07-29T08:33:38;23.90;71.20
33707;DHT22;20583;50.960;5.332;2022-07-29T08:36:05;23.90;71.30
33707;DHT22;20583;50.960;5.332;2022-07-29T08:38:31;24.00;71.20
33707;DHT22;20583;50.960;5.332;2022-07-29T08:41:01;24.00;70.80
33707;DHT22;20583;50.960;5.332;2022-07-29T08:43:30;24.10;70.60
33707;DHT22;20583;50.960;5.332;2022-07-29T08:45:55;24.10;70.20
33707;DHT22;20583;50.960;5.332;2022-07-29T08:48:22;24.20;70.10
33707;DHT22;20583;50.960;5.332;2022-07-29T08:50:52;24.10;69.90
33707;DHT22;20583;50.960;5.332;2022-07-29T08:53:20;24.20;69.60
33707;DHT22;20583;50.960;5.332;2022-07-29T08:55:49;24.20;69.60
33707;DHT22;20583;50.960;5.332;2022-07-29T08:58:16;24.20;69.80
33707;DHT22;20583;50.960;5.332;2022-07-29T09:00:54;24.30;69.70
33707;DHT22;20583;50.960;5.332;2022-07-29T09:03:22;24.30;69.90
33707;DHT22;20583;50.960;5.332;2022-07-29T09:05:49;24.30;69.50
33707;DHT22;20583;50.960;5.332;2022-07-29T09:08:15;24.40;69.40
33707;DHT22;20583;50.960;5.332;2022-07-29T09:10:42;24.40;69.40
33707;DHT22;20583;50.960;5.332;2022-07-29T09:13:08;24.50;69.20
33707;DHT22;20583;50.960;5.332;2022-07-29T09:15:34;24.40;69.30
33707;DHT22;20583;50.960;5.332;2022-07-29T09:18:00;24.40;69.60
33707;DHT22;20583;50.960;5.332;2022-07-29T09:20:26;24.40;69.80
33707;DHT22;20583;50.960;5.332;2022-07-29T09:23:12;24.40;69.60
33707;DHT22;20583;50.960;5.332;2022-07-29T09:25:39;24.40;69.40
33707;DHT22;20583;50.960;5.332;2022-07-29T09:28:07;24.40;69.40
33707;DHT22;20583;50.960;5.332;2022-07-29T09:30:33;24.50;69.50
33707;DHT22;20583;50.960;5.332;2022-07-29T09:33:01;24.50;69.30
33707;DHT22;20583;50.960;5.332;2022-07-29T09:35:28;24.50;69.50
33707;DHT22;20583;50.960;5.332;2022-07-29T09:37:54;24.50;69.60
33707;DHT22;20583;50.960;5.332;2022-07-29T09:40:23;24.50;69.60
33707;DHT22;20583;50.960;5.332;2022-07-29T09:42:50;24.50;69.70
33707;DHT22;20583;50.960;5.332;2022-07-29T09:45:36;24.50;69.70
33707;DHT22;20583;50.960;5.332;2022-07-29T09:50:44;24.60;69.40
33707;DHT22;20583;50.960;5.332;2022-07-29T09:53:10;24.50;69.30
33707;DHT22;20583;50.960;5.332;2022-07-29T09:55:49;24.50;69.30
33707;DHT22;20583;50.960;5.332;2022-07-29T09:58:19;24.50;69.10
33707;DHT22;20583;50.960;5.332;2022-07-29T10:00:46;24.60;69.00
33707;DHT22;20583;50.960;5.332;2022-07-29T10:03:13;24.40;69.90
33707;DHT22;20583;50.960;5.332;2022-07-29T10:05:39;24.50;69.40
33707;DHT22;20583;50.960;5.332;2022-07-29T10:08:06;24.60;69.10
33707;DHT22;20583;50.960;5.332;2022-07-29T10:10:40;24.60;68.90
33707;DHT22;20583;50.960;5.332;2022-07-29T10:13:13;24.60;68.80
33707;DHT22;20583;50.960;5.332;2022-07-29T10:15:41;24.60;68.70
33707;DHT22;20583;50.960;5.332;2022-07-29T10:18:10;24.60;68.60
33707;DHT22;20583;50.960;5.332;2022-07-29T10:20:37;24.70;68.50
33707;DHT22;20583;50.960;5.332;2022-07-29T10:23:03;24.70;68.40
33707;DHT22;20583;50.960;5.332;2022-07-29T10:25:29;24.70;68.20
33707;DHT22;20583;50.960;5.332;2022-07-29T10:27:55;24.70;68.40
33707;DHT22;20583;50.960;5.332;2022-07-29T10:30:22;24.70;68.30
33707;DHT22;20583;50.960;5.332;2022-07-29T10:38:07;24.70;68.00
33707;DHT22;20583;50.960;5.332;2022-07-29T10:40:42;24.70;67.80
33707;DHT22;20583;50.960;5.332;2022-07-29T10:43:33;24.80;67.80
33707;DHT22;20583;50.960;5.332;2022-07-29T10:46:02;24.80;67.70
33707;DHT22;20583;50.960;5.332;2022-07-29T10:48:29;24.80;67.70
33707;DHT22;20583;50.960;5.332;2022-07-29T10:51:02;24.80;67.70
33707;DHT22;20583;50.960;5.332;2022-07-29T10:53:49;24.70;67.50
33707;DHT22;20583;50.960;5.332;2022-07-29T10:56:27;24.70;67.50
33707;DHT22;20583;50.960;5.332;2022-07-29T11:01:44;24.80;67.30
33707;DHT22;20583;50.960;5.332;2022-07-29T11:04:09;24.90;67.20
33707;DHT22;20583;50.960;5.332;2022-07-29T11:09:26;24.80;66.90
33707;DHT22;20583;50.960;5.332;2022-07-29T11:11:52;24.90;66.80
33707;DHT22;20583;50.960;5.332;2022-07-29T11:14:30;24.90;66.50
33707;DHT22;20583;50.960;5.332;2022-07-29T11:17:05;24.90;66.40
33707;DHT22;20583;50.960;5.332;2022-07-29T11:19:32;24.90;66.50
33707;DHT22;20583;50.960;5.332;2022-07-29T11:21:58;24.90;66.50
33707;DHT22;20583;50.960;5.332;2022-07-29T11:24:30;24.90;66.30
33707;DHT22;20583;50.960;5.332;2022-07-29T11:27:20;24.90;66.30
33707;DHT22;20583;50.960;5.332;2022-07-29T11:30:05;24.90;66.10
33707;DHT22;20583;50.960;5.332;2022-07-29T11:32:44;24.90;66.00
33707;DHT22;20583;50.960;5.332;2022-07-29T11:37:36;25.10;65.90
33707;DHT22;20583;50.960;5.332;2022-07-29T11:47:22;25.10;66.00
33707;DHT22;20583;50.960;5.332;2022-07-29T11:49:48;25.00;65.90
33707;DHT22;20583;50.960;5.332;2022-07-29T11:52:17;25.00;65.90
33707;DHT22;20583;50.960;5.332;2022-07-29T11:54:43;25.10;65.90
33707;DHT22;20583;50.960;5.332;2022-07-29T11:57:09;25.10;65.90
33707;DHT22;20583;50.960;5.332;2022-07-29T11:59:43;25.00;65.90
33707;DHT22;20583;50.960;5.332;2022-07-29T12:02:09;25.00;66.10
33707;DHT22;20583;50.960;5.332;2022-07-29T12:04:55;25.10;65.80
33707;DHT22;20583;50.960;5.332;2022-07-29T12:07:31;25.10;65.70
33707;DHT22;20583;50.960;5.332;2022-07-29T12:09:57;25.20;66.30
33707;DHT22;20583;50.960;5.332;2022-07-29T12:12:23;25.10;66.70
33707;DHT22;20583;50.960;5.332;2022-07-29T12:14:49;25.00;67.10
33707;DHT22;20583;50.960;5.332;2022-07-29T12:17:32;25.10;66.90
33707;DHT22;20583;50.960;5.332;2022-07-29T12:20:03;25.10;66.50
33707;DHT22;20583;50.960;5.332;2022-07-29T12:22:38;25.10;66.50
33707;DHT22;20583;50.960;5.332;2022-07-29T12:25:05;25.20;66.50
33707;DHT22;20583;50.960;5.332;2022-07-29T12:27:31;25.20;66.50
33707;DHT22;20583;50.960;5.332;2022-07-29T12:30:05;25.20;66.50
33707;DHT22;20583;50.960;5.332;2022-07-29T12:35:07;25.20;66.40
33707;DHT22;20583;50.960;5.332;2022-07-29T12:37:38;25.20;66.20
33707;DHT22;20583;50.960;5.332;2022-07-29T12:40:05;25.20;66.20
33707;DHT22;20583;50.960;5.332;2022-07-29T12:42:32;25.20;66.10
33707;DHT22;20583;50.960;5.332;2022-07-29T12:44:58;25.20;65.70
33707;DHT22;20583;50.960;5.332;2022-07-29T12:47:23;25.20;66.80
33707;DHT22;20583;50.960;5.332;2022-07-29T12:49:50;25.30;65.70
33707;DHT22;20583;50.960;5.332;2022-07-29T12:52:32;25.30;66.70
33707;DHT22;20583;50.960;5.332;2022-07-29T12:54:58;25.40;66.90
33707;DHT22;20583;50.960;5.332;2022-07-29T12:57:24;25.40;67.80
33707;DHT22;20583;50.960;5.332;2022-07-29T13:00:11;25.40;67.70
33707;DHT22;20583;50.960;5.332;2022-07-29T13:02:38;25.40;67.40
33707;DHT22;20583;50.960;5.332;2022-07-29T13:05:05;25.40;66.90
33707;DHT22;20583;50.960;5.332;2022-07-29T13:07:32;25.50;66.30
33707;DHT22;20583;50.960;5.332;2022-07-29T13:10:15;25.50;66.00
33707;DHT22;20583;50.960;5.332;2022-07-29T13:15:28;25.50;65.70
33707;DHT22;20583;50.960;5.332;2022-07-29T13:17:54;25.50;66.20
33707;DHT22;20583;50.960;5.332;2022-07-29T13:20:23;25.50;66.20
33707;DHT22;20583;50.960;5.332;2022-07-29T13:22:49;25.50;67.00
33707;DHT22;20583;50.960;5.332;2022-07-29T13:25:32;25.50;66.20
33707;DHT22;20583;50.960;5.332;2022-07-29T13:27:59;25.50;66.00
33707;DHT22;20583;50.960;5.332;2022-07-29T13:30:24;25.50;65.70
33707;DHT22;20583;50.960;5.332;2022-07-29T13:32:52;25.60;65.40
33707;DHT22;20583;50.960;5.332;2022-07-29T13:35:18;25.60;65.50
33707;DHT22;20583;50.960;5.332;2022-07-29T13:37:44;25.60;65.30
33707;DHT22;20583;50.960;5.332;2022-07-29T13:40:11;25.60;65.10
33707;DHT22;20583;50.960;5.332;2022-07-29T13:42:37;25.70;65.10
33707;DHT22;20583;50.960;5.332;2022-07-29T13:45:04;25.70;64.90
33707;DHT22;20583;50.960;5.332;2022-07-29T13:47:30;25.70;64.60
33707;DHT22;20583;50.960;5.332;2022-07-29T13:49:56;25.60;63.40
33707;DHT22;20583;50.960;5.332;2022-07-29T13:52:22;25.60;64.60
33707;DHT22;20583;50.960;5.332;2022-07-29T13:54:48;25.60;64.50
33707;DHT22;20583;50.960;5.332;2022-07-29T13:57:14;25.70;64.20
33707;DHT22;20583;50.960;5.332;2022-07-29T13:59:41;25.70;63.80
33707;DHT22;20583;50.960;5.332;2022-07-29T14:02:09;25.70;63.80
33707;DHT22;20583;50.960;5.332;2022-07-29T14:04:35;25.60;63.50
33707;DHT22;20583;50.960;5.332;2022-07-29T14:07:01;25.70;63.20
33707;DHT22;20583;50.960;5.332;2022-07-29T14:09:27;25.60;62.30
33707;DHT22;20583;50.960;5.332;2022-07-29T14:11:53;25.60;61.50
33707;DHT22;20583;50.960;5.332;2022-07-29T14:14:19;25.70;61.90
33707;DHT22;20583;50.960;5.332;2022-07-29T14:16:45;25.70;62.20
33707;DHT22;20583;50.960;5.332;2022-07-29T14:19:11;25.80;61.80
33707;DHT22;20583;50.960;5.332;2022-07-29T14:21:38;25.90;61.50
33707;DHT22;20583;50.960;5.332;2022-07-29T14:24:04;26.00;61.30
33707;DHT22;20583;50.960;5.332;2022-07-29T14:26:30;25.90;61.20
33707;DHT22;20583;50.960;5.332;2022-07-29T14:28:55;25.80;60.40
33707;DHT22;20583;50.960;5.332;2022-07-29T14:31:21;25.70;61.60
33707;DHT22;20583;50.960;5.332;2022-07-29T14:33:47;25.70;60.80
33707;DHT22;20583;50.960;5.332;2022-07-29T14:36:12;25.70;61.70
33707;DHT22;20583;50.960;5.332;2022-07-29T14:38:38;25.80;59.70
33707;DHT22;20583;50.960;5.332;2022-07-29T14:41:06;25.80;60.00
33707;DHT22;20583;50.960;5.332;2022-07-29T14:43:34;25.90;60.10
33707;DHT22;20583;50.960;5.332;2022-07-29T14:46:01;25.80;60.00
33707;DHT22;20583;50.960;5.332;2022-07-29T14:48:26;25.80;60.00
33707;DHT22;20583;50.960;5.332;2022-07-29T14:50:52;25.90;60.10
33707;DHT22;20583;50.960;5.332;2022-07-29T14:53:18;26.00;60.10
33707;DHT22;20583;50.960;5.332;2022-07-29T14:55:44;26.00;60.20
33707;DHT22;20583;50.960;5.332;2022-07-29T14:58:10;26.00;60.10
33707;DHT22;20583;50.960;5.332;2022-07-29T15:00:36;25.80;60.00
33707;DHT22;20583;50.960;5.332;2022-07-29T15:03:03;25.80;59.50
33707;DHT22;20583;50.960;5.332;2022-07-29T15:05:29;25.80;59.50
33707;DHT22;20583;50.960;5.332;2022-07-29T15:07:55;25.90;59.50
33707;DHT22;20583;50.960;5.332;2022-07-29T15:10:21;25.90;59.20
33707;DHT22;20583;50.960;5.332;2022-07-29T15:12:46;25.80;58.70
33707;DHT22;20583;50.960;5.332;2022-07-29T15:15:12;25.80;59.60
33707;DHT22;20583;50.960;5.332;2022-07-29T15:17:38;25.80;59.80
33707;DHT22;20583;50.960;5.332;2022-07-29T15:20:04;25.80;59.40
33707;DHT22;20583;50.960;5.332;2022-07-29T15:22:30;25.90;59.70
33707;DHT22;20583;50.960;5.332;2022-07-29T15:24:56;26.00;59.50
33707;DHT22;20583;50.960;5.332;2022-07-29T15:27:21;26.10;59.50
33707;DHT22;20583;50.960;5.332;2022-07-29T15:29:47;26.20;59.50
33707;DHT22;20583;50.960;5.332;2022-07-29T15:32:13;26.10;59.40
33707;DHT22;20583;50.960;5.332;2022-07-29T15:34:39;26.00;59.00
33707;DHT22;20583;50.960;5.332;2022-07-29T15:37:05;26.00;58.60
33707;DHT22;20583;50.960;5.332;2022-07-29T15:39:31;26.10;59.20
33707;DHT22;20583;50.960;5.332;2022-07-29T15:41:57;26.10;58.90
33707;DHT22;20583;50.960;5.332;2022-07-29T15:44:25;25.90;59.20
33707;DHT22;20583;50.960;5.332;2022-07-29T15:46:51;25.80;59.30
33707;DHT22;20583;50.960;5.332;2022-07-29T15:49:29;25.90;58.80
33707;DHT22;20583;50.960;5.332;2022-07-29T15:52:03;26.00;57.80
33707;DHT22;20583;50.960;5.332;2022-07-29T15:54:32;26.00;57.60
33707;DHT22;20583;50.960;5.332;2022-07-29T15:56:58;26.10;58.00
33707;DHT22;20583;50.960;5.332;2022-07-29T15:59:24;26.10;57.90
33707;DHT22;20583;50.960;5.332;2022-07-29T16:01:50;26.10;58.00
33707;DHT22;20583;50.960;5.332;2022-07-29T16:04:16;26.10;57.90
33707;DHT22;20583;50.960;5.332;2022-07-29T16:06:42;26.10;57.90
33707;DHT22;20583;50.960;5.332;2022-07-29T16:09:09;26.10;58.00
33707;DHT22;20583;50.960;5.332;2022-07-29T16:11:34;26.00;58.10
33707;DHT22;20583;50.960;5.332;2022-07-29T16:14:00;26.10;58.00
33707;DHT22;20583;50.960;5.332;2022-07-29T16:16:26;26.10;58.00
33707;DHT22;20583;50.960;5.332;2022-07-29T16:18:52;26.10;58.00